Time;durP1;ratioP1;P1;durP2;ratioP2;P2;SDS_P1;SDS_P2;PMS_P1;PMS_P2;Temp;Humidity;BMP_temperature;BMP_pressure;BME280_temperature;BME280_humidity;BME280_pressure;Samples;Min_cycle;Max_cycle;Signal;HPM_P1;HPM_P2
2021/08/24 00:01:15;;;;;;;2.00;0.68;;;14.30;99.90;;;;;;4972985;28;20398;-87
2021/08/24 00:03:41;;;;;;;1.13;0.40;;;14.40;99.90;;;;;;4972841;28;20034;-87
2021/08/24 00:06:07;;;;;;;3.13;0.50;;;14.30;99.90;;;;;;4972861;28;20031;-88
2021/08/24 00:08:35;;;;;;;3.17;0.60;;;14.20;99.90;;;;;;4972919;28;20469;-86
2021/08/24 00:11:01;;;;;;;1.10;0.40;;;14.20;99.90;;;;;;4972701;28;20102;-88
2021/08/24 00:13:27;;;;;;;1.17;0.40;;;14.10;99.90;;;;;;4972739;28;20053;-88
2021/08/24 00:15:55;;;;;;;2.00;0.40;;;14.10;99.90;;;;;;4972956;28;20037;-87
2021/08/24 00:18:21;;;;;;;2.08;0.57;;;14.00;99.90;;;;;;4951938;28;20039;-87
2021/08/24 00:20:50;;;;;;;1.60;0.45;;;14.00;99.90;;;;;;4937459;29;20058;-89
2021/08/24 00:23:19;;;;;;;1.20;0.43;;;14.00;99.90;;;;;;4938444;29;20085;-90
2021/08/24 00:25:47;;;;;;;2.33;0.50;;;14.00;99.90;;;;;;4942007;28;20043;-89
2021/08/24 00:28:13;;;;;;;2.50;0.50;;;14.00;99.90;;;;;;4976443;28;20034;-88
2021/08/24 00:30:39;;;;;;;1.73;0.50;;;13.90;99.90;;;;;;4976371;28;20108;-88
2021/08/24 00:33:06;;;;;;;2.10;0.60;;;13.90;99.90;;;;;;4976136;28;20027;-89
2021/08/24 00:35:35;;;;;;;1.38;0.50;;;13.90;99.90;;;;;;4976502;28;20050;-88
2021/08/24 00:38:00;;;;;;;1.52;0.50;;;13.80;99.90;;;;;;4976410;28;20026;-89
2021/08/24 00:40:26;;;;;;;1.48;0.82;;;13.80;99.90;;;;;;4976460;28;20041;-89
2021/08/24 00:42:51;;;;;;;1.92;0.50;;;13.80;99.90;;;;;;4976311;28;20058;-88
2021/08/24 00:45:17;;;;;;;1.77;0.50;;;13.80;99.90;;;;;;4976197;28;20030;-89
2021/08/24 00:47:47;;;;;;;1.83;0.40;;;13.80;99.90;;;;;;4974022;23;20051;-87
2021/08/24 00:50:34;;;;;;;3.42;0.60;;;13.70;99.90;;;;;;4969787;29;20062;-86
2021/08/24 00:53:03;;;;;;;2.25;0.50;;;13.70;99.90;;;;;;4985970;28;20043;-86
2021/08/24 00:55:30;;;;;;;3.15;0.50;;;13.70;99.90;;;;;;4985922;28;20066;-87
2021/08/24 00:58:04;;;;;;;1.02;0.30;;;13.60;99.90;;;;;;4970036;29;20122;-85
2021/08/24 01:00:31;;;;;;;1.58;0.55;;;13.60;99.90;;;;;;4985854;28;20380;-85
2021/08/24 01:03:07;;;;;;;1.88;0.50;;;13.50;99.90;;;;;;4969797;29;20042;-86
2021/08/24 01:05:35;;;;;;;2.20;0.50;;;13.50;99.90;;;;;;4969551;29;20086;-87
2021/08/24 01:08:14;;;;;;;1.67;0.57;;;13.50;99.90;;;;;;4969653;29;20038;-86
2021/08/24 01:10:44;;;;;;;1.65;0.63;;;13.50;99.90;;;;;;4969362;29;20566;-86
2021/08/24 01:13:33;;;;;;;2.45;0.40;;;13.50;99.90;;;;;;4969459;29;20055;-86
2021/08/24 01:16:29;;;;;;;4.55;0.60;;;13.40;99.90;;;;;;4953696;29;20030;-89
2021/08/24 01:19:17;;;;;;;1.50;0.50;;;13.50;99.90;;;;;;4966271;29;20531;-87
2021/08/24 01:22:19;;;;;;;2.00;0.57;;;13.50;99.90;;;;;;4950010;29;20135;-87
2021/08/24 01:25:07;;;;;;;2.47;0.40;;;13.50;99.90;;;;;;4934054;29;20055;-86
2021/08/24 01:28:10;;;;;;;2.85;0.60;;;13.40;99.90;;;;;;4982330;28;20035;-88
2021/08/24 01:30:47;;;;;;;2.85;0.60;;;13.40;99.90;;;;;;4971933;28;20031;-85
2021/08/24 01:33:40;;;;;;;1.67;0.60;;;13.40;99.90;;;;;;4988508;28;20043;-87
2021/08/24 01:36:11;;;;;;;2.40;0.50;;;13.40;99.90;;;;;;4953110;28;20117;-87
2021/08/24 01:38:46;;;;;;;4.35;0.60;;;13.30;99.90;;;;;;4972256;28;20148;-88
2021/08/24 01:41:24;;;;;;;2.67;0.57;;;13.40;99.90;;;;;;4988253;28;20042;-88
2021/08/24 01:44:12;;;;;;;2.15;0.50;;;13.40;99.90;;;;;;4988489;28;20402;-88
2021/08/24 01:46:50;;;;;;;1.70;0.60;;;13.30;99.90;;;;;;4988020;28;20045;-87
2021/08/24 01:49:18;;;;;;;3.08;0.52;;;13.30;99.90;;;;;;4987846;28;20055;-86
2021/08/24 01:51:52;;;;;;;2.10;0.50;;;13.30;99.90;;;;;;4971681;28;20042;-86
2021/08/24 01:54:25;;;;;;;2.00;0.70;;;13.30;99.90;;;;;;4987971;28;20042;-86
2021/08/24 01:56:53;;;;;;;1.83;0.55;;;13.30;99.90;;;;;;4987946;28;20034;-86
2021/08/24 01:59:46;;;;;;;1.05;0.40;;;13.20;99.90;;;;;;4987785;28;20046;-87
2021/08/24 02:02:15;;;;;;;1.50;0.57;;;13.20;99.90;;;;;;4987719;28;20027;-87
2021/08/24 02:05:04;;;;;;;1.80;0.50;;;13.20;99.90;;;;;;4987673;28;20035;-86
2021/08/24 02:07:34;;;;;;;2.92;0.50;;;13.10;99.90;;;;;;4971838;28;20027;-87
2021/08/24 02:10:09;;;;;;;1.80;0.50;;;13.10;99.90;;;;;;4987674;28;20121;-87
2021/08/24 02:12:38;;;;;;;1.13;0.40;;;13.10;99.90;;;;;;4987316;28;20483;-86
2021/08/24 02:15:05;;;;;;;1.67;0.70;;;13.10;99.90;;;;;;4987478;28;20054;-87
2021/08/24 02:17:32;;;;;;;1.52;0.60;;;13.10;99.90;;;;;;4976333;28;20061;-87
2021/08/24 02:20:06;;;;;;;1.50;0.65;;;13.10;99.90;;;;;;4952353;29;20039;-87
2021/08/24 02:22:37;;;;;;;2.38;0.63;;;13.00;99.90;;;;;;4952099;29;20098;-87
2021/08/24 02:25:16;;;;;;;3.67;0.80;;;13.00;99.90;;;;;;4951932;29;20031;-86
2021/08/24 02:28:11;;;;;;;5.05;0.70;;;13.00;99.90;;;;;;4969289;29;20051;-86
2021/08/24 02:30:44;;;;;;;1.83;0.63;;;13.00;99.90;;;;;;4960493;29;20039;-87
2021/08/24 02:33:11;;;;;;;2.38;0.80;;;13.00;99.90;;;;;;4951870;29;20080;-86
2021/08/24 02:35:48;;;;;;;1.30;0.50;;;13.00;99.90;;;;;;4967914;28;20033;-87
2021/08/24 02:38:23;;;;;;;2.75;0.80;;;13.00;99.90;;;;;;4967927;29;20069;-87
2021/08/24 02:41:03;;;;;;;2.97;0.80;;;13.00;99.90;;;;;;4967635;29;20063;-86
2021/08/24 02:43:32;;;;;;;3.95;1.27;;;12.90;99.90;;;;;;4951060;29;20031;-86
2021/08/24 02:46:28;;;;;;;1.98;0.70;;;12.90;99.90;;;;;;4951834;29;20042;-87
2021/08/24 02:49:04;;;;;;;3.47;1.38;;;12.90;99.90;;;;;;4878608;29;20060;-85
2021/08/24 02:51:31;;;;;;;2.58;1.00;;;12.90;99.90;;;;;;4890472;29;20040;-86
2021/08/24 02:54:07;;;;;;;2.22;0.70;;;12.90;99.90;;;;;;4890378;29;20084;-86
2021/08/24 02:56:33;;;;;;;2.25;0.70;;;12.90;99.90;;;;;;4890604;29;20040;-86
2021/08/24 02:58:58;;;;;;;2.33;0.90;;;12.80;99.90;;;;;;4890199;29;20056;-87
2021/08/24 03:01:24;;;;;;;3.40;0.95;;;12.90;99.90;;;;;;4890215;29;20041;-86
2021/08/24 03:03:49;;;;;;;2.22;0.82;;;12.80;99.90;;;;;;4890394;29;20052;-87
2021/08/24 03:06:15;;;;;;;5.90;1.02;;;12.80;99.90;;;;;;4874545;29;20044;-87
2021/08/24 03:08:42;;;;;;;4.30;1.17;;;12.80;99.90;;;;;;4890286;29;20070;-89
2021/08/24 03:11:10;;;;;;;2.83;0.80;;;12.80;99.90;;;;;;4890123;29;20049;-87
2021/08/24 03:13:45;;;;;;;2.90;1.20;;;12.80;99.90;;;;;;4890008;29;20053;-87
2021/08/24 03:16:20;;;;;;;3.75;0.98;;;12.80;99.90;;;;;;4890213;29;20029;-87
2021/08/24 03:18:51;;;;;;;2.10;0.73;;;12.80;99.90;;;;;;4859121;29;20049;-87
2021/08/24 03:21:24;;;;;;;2.63;0.60;;;12.80;99.90;;;;;;4890053;29;20025;-87
2021/08/24 03:23:52;;;;;;;2.08;0.70;;;12.80;99.90;;;;;;4890099;29;20048;-86
2021/08/24 03:26:26;;;;;;;2.17;0.90;;;12.80;99.90;;;;;;4942674;28;20047;-87
2021/08/24 03:28:51;;;;;;;4.60;1.25;;;12.80;99.90;;;;;;4966892;29;20031;-86
2021/08/24 03:31:19;;;;;;;3.40;1.05;;;12.80;99.90;;;;;;4966769;29;20038;-88
2021/08/24 03:33:45;;;;;;;5.47;1.20;;;12.80;99.90;;;;;;4966888;29;20043;-87
2021/08/24 03:36:11;;;;;;;3.53;1.10;;;12.70;99.90;;;;;;4950689;29;20046;-88
2021/08/24 03:38:39;;;;;;;5.10;2.00;;;12.70;99.90;;;;;;4966739;29;20121;-87
2021/08/24 03:41:07;;;;;;;4.15;1.30;;;12.70;99.90;;;;;;4966390;29;20509;-87
2021/08/24 03:43:32;;;;;;;3.63;1.30;;;12.80;99.90;;;;;;4950603;29;20062;-87
2021/08/24 03:45:58;;;;;;;3.00;1.30;;;12.80;99.90;;;;;;4966769;29;20024;-87
2021/08/24 03:48:24;;;;;;;2.72;1.08;;;12.70;99.90;;;;;;4958563;29;20062;-89
2021/08/24 03:50:50;;;;;;;3.17;1.63;;;12.70;99.90;;;;;;4950677;29;20066;-89
2021/08/24 03:53:15;;;;;;;3.75;1.33;;;12.70;99.90;;;;;;4950418;29;20042;-90
2021/08/24 03:55:41;;;;;;;3.58;1.77;;;12.80;99.90;;;;;;4950718;29;20512;-90
2021/08/24 03:58:07;;;;;;;3.30;1.33;;;12.70;99.90;;;;;;4950658;29;20031;-88
2021/08/24 04:00:34;;;;;;;5.25;1.67;;;12.70;99.90;;;;;;4966653;28;20043;-89
2021/08/24 04:03:00;;;;;;;5.22;1.58;;;12.80;99.90;;;;;;4950591;29;20063;-87
2021/08/24 04:05:25;;;;;;;2.55;1.02;;;12.80;99.90;;;;;;4950513;29;20035;-90
2021/08/24 04:07:52;;;;;;;5.70;1.48;;;12.80;99.90;;;;;;4950580;29;20050;-88
2021/08/24 04:10:18;;;;;;;3.92;1.60;;;12.70;99.90;;;;;;4950535;29;20042;-89
2021/08/24 04:12:45;;;;;;;5.35;1.58;;;12.70;99.90;;;;;;4950417;29;20553;-89
2021/08/24 04:15:11;;;;;;;6.30;1.60;;;12.60;99.90;;;;;;4950378;29;20039;-89
2021/08/24 04:17:39;;;;;;;4.82;1.80;;;12.60;99.90;;;;;;4938496;29;20055;-90
2021/08/24 04:20:08;;;;;;;2.67;1.42;;;12.70;99.90;;;;;;4931376;29;20071;-88
2021/08/24 04:22:35;;;;;;;2.60;1.47;;;12.60;99.90;;;;;;4947194;29;20482;-89
2021/08/24 04:25:00;;;;;;;4.88;1.92;;;12.60;99.90;;;;;;4931219;29;20099;-89
2021/08/24 04:27:27;;;;;;;7.95;2.60;;;12.70;99.90;;;;;;4962532;28;20090;-88
2021/08/24 04:29:53;;;;;;;4.38;1.83;;;12.60;99.90;;;;;;4950126;29;20031;-89
2021/08/24 04:32:28;;;;;;;6.32;1.95;;;12.60;99.90;;;;;;4950220;29;20489;-88
2021/08/24 04:34:55;;;;;;;4.50;2.60;;;12.60;99.90;;;;;;4950227;29;20070;-88
2021/08/24 04:37:21;;;;;;;5.60;2.42;;;12.60;99.90;;;;;;4966304;29;20035;-89
2021/08/24 04:39:47;;;;;;;4.07;1.75;;;12.60;99.90;;;;;;4950247;29;20027;-88
2021/08/24 04:42:13;;;;;;;4.88;1.35;;;12.60;99.90;;;;;;4950219;29;20394;-88
2021/08/24 04:44:38;;;;;;;3.92;1.88;;;12.60;99.90;;;;;;4950066;29;20027;-88
2021/08/24 04:47:04;;;;;;;5.95;1.67;;;12.60;99.90;;;;;;4967402;28;20035;-88
2021/08/24 04:49:29;;;;;;;4.80;1.83;;;12.60;99.90;;;;;;4949426;29;20099;-89
2021/08/24 04:51:55;;;;;;;5.70;1.65;;;12.60;99.90;;;;;;4965377;29;20325;-89
2021/08/24 04:54:21;;;;;;;3.10;1.67;;;12.60;99.90;;;;;;4965314;29;20039;-89
2021/08/24 04:56:46;;;;;;;5.15;1.50;;;12.60;99.90;;;;;;4965340;29;20051;-89
2021/08/24 04:59:12;;;;;;;4.13;1.80;;;12.60;99.90;;;;;;4965467;28;20460;-89
2021/08/24 05:01:38;;;;;;;5.20;2.28;;;12.60;99.90;;;;;;4965439;29;20059;-88
2021/08/24 05:04:04;;;;;;;3.45;2.15;;;12.60;99.90;;;;;;4965373;29;20039;-87
2021/08/24 05:06:30;;;;;;;8.23;3.03;;;12.70;99.90;;;;;;4967683;28;20035;-88
2021/08/24 05:08:56;;;;;;;4.35;3.28;;;12.70;99.90;;;;;;4968802;29;20050;-88
2021/08/24 05:11:21;;;;;;;3.35;2.42;;;12.80;99.90;;;;;;4968548;29;20027;-88
2021/08/24 05:13:47;;;;;;;6.85;2.22;;;12.70;99.90;;;;;;4968580;29;20075;-88
2021/08/24 05:16:13;;;;;;;4.25;2.20;;;12.80;99.90;;;;;;4968070;29;20098;-88
2021/08/24 05:18:40;;;;;;;4.20;1.70;;;12.80;99.90;;;;;;4933546;29;20040;-87
2021/08/24 05:21:13;;;;;;;5.35;1.88;;;12.80;99.90;;;;;;4933483;29;20039;-88
2021/08/24 05:23:40;;;;;;;4.13;2.10;;;12.90;99.90;;;;;;4949483;29;20340;-88
2021/08/24 05:26:11;;;;;;;5.63;2.45;;;12.90;99.90;;;;;;4938022;29;20143;-87
2021/08/24 05:28:38;;;;;;;6.45;2.97;;;12.90;99.90;;;;;;4952406;29;20035;-88
2021/08/24 05:31:04;;;;;;;4.10;2.15;;;13.00;99.90;;;;;;4968606;29;20034;-89
2021/08/24 05:33:31;;;;;;;6.00;2.85;;;13.00;99.90;;;;;;4968283;29;20106;-88
2021/08/24 05:35:58;;;;;;;7.63;3.50;;;13.10;99.90;;;;;;4968473;29;20456;-88
2021/08/24 05:38:23;;;;;;;8.18;4.22;;;13.10;99.90;;;;;;4968502;29;20035;-90
2021/08/24 05:40:49;;;;;;;6.03;3.65;;;13.20;99.90;;;;;;4984435;28;20038;-89
2021/08/24 05:43:15;;;;;;;7.05;2.78;;;13.20;99.90;;;;;;4968229;29;20480;-88
2021/08/24 05:45:40;;;;;;;5.22;3.40;;;13.20;99.90;;;;;;4967879;29;20046;-89
2021/08/24 05:48:06;;;;;;;4.35;2.50;;;13.30;99.90;;;;;;4975233;28;20042;-89
2021/08/24 05:50:31;;;;;;;8.05;2.78;;;13.30;99.90;;;;;;4987338;28;20054;-89
2021/08/24 05:52:57;;;;;;;5.32;3.22;;;13.30;99.90;;;;;;4987489;28;20039;-89
2021/08/24 05:55:23;;;;;;;5.93;3.85;;;13.40;99.90;;;;;;4987167;28;20038;-89
2021/08/24 05:57:51;;;;;;;5.65;3.55;;;13.40;99.90;;;;;;4987164;28;20094;-89
2021/08/24 06:00:17;;;;;;;5.20;2.40;;;13.50;99.90;;;;;;4987217;28;20491;-89
2021/08/24 06:02:43;;;;;;;3.72;2.72;;;13.50;99.90;;;;;;4988257;28;20031;-89
2021/08/24 06:05:09;;;;;;;5.70;3.38;;;13.50;99.90;;;;;;4971072;28;20034;-89
2021/08/24 06:07:38;;;;;;;8.23;3.10;;;13.60;99.90;;;;;;4986933;28;20034;-89
2021/08/24 06:10:05;;;;;;;5.75;2.00;;;13.60;99.90;;;;;;4986946;28;20114;-90
2021/08/24 06:12:31;;;;;;;4.93;2.70;;;13.70;99.90;;;;;;4986990;28;20045;-89
2021/08/24 06:14:56;;;;;;;5.85;2.17;;;13.80;99.90;;;;;;4987102;28;20026;-89
2021/08/24 06:17:22;;;;;;;5.85;4.03;;;13.80;99.90;;;;;;4972933;28;20067;-88
2021/08/24 06:19:47;;;;;;;6.03;4.03;;;13.90;99.90;;;;;;4932300;29;20078;-89
2021/08/24 06:22:13;;;;;;;7.85;4.03;;;14.00;99.90;;;;;;4948294;29;20036;-88
2021/08/24 06:24:39;;;;;;;4.75;2.75;;;14.00;99.90;;;;;;4932357;29;20039;-88
2021/08/24 06:27:06;;;;;;;4.65;2.60;;;14.20;99.90;;;;;;4957071;28;20037;-89
2021/08/24 06:29:32;;;;;;;5.07;3.17;;;14.30;99.90;;;;;;4988096;28;20019;-87
2021/08/24 06:32:00;;;;;;;6.82;3.60;;;14.30;99.90;;;;;;4986608;28;20039;-87
2021/08/24 06:34:28;;;;;;;6.20;2.83;;;14.40;99.90;;;;;;4986411;28;20043;-89
2021/08/24 06:36:56;;;;;;;4.38;2.15;;;14.50;99.90;;;;;;4986628;28;20034;-87
2021/08/24 06:39:22;;;;;;;9.35;3.28;;;14.70;99.90;;;;;;4986702;28;20126;-88
2021/08/24 06:41:48;;;;;;;6.80;4.13;;;14.70;99.90;;;;;;4986443;28;20035;-87
2021/08/24 06:44:14;;;;;;;6.10;3.30;;;14.70;99.90;;;;;;4986412;28;20030;-87
2021/08/24 06:46:41;;;;;;;4.93;2.92;;;14.80;99.90;;;;;;4986219;28;20031;-88
2021/08/24 06:49:07;;;;;;;6.65;3.53;;;15.00;99.90;;;;;;5002440;28;20053;-86
2021/08/24 06:51:34;;;;;;;7.45;3.80;;;15.00;99.90;;;;;;4989448;28;20030;-87
2021/08/24 06:54:02;;;;;;;6.25;3.20;;;15.10;99.90;;;;;;4973111;28;20053;-87
2021/08/24 06:56:27;;;;;;;6.15;3.35;;;15.20;99.90;;;;;;4973086;28;20041;-88
2021/08/24 06:58:53;;;;;;;7.80;4.03;;;15.30;99.90;;;;;;4973199;28;20031;-88
2021/08/24 07:01:24;;;;;;;5.22;3.05;;;15.40;99.90;;;;;;4973123;28;20034;-88
2021/08/24 07:03:50;;;;;;;4.13;2.95;;;15.50;99.90;;;;;;4973236;28;20130;-88
2021/08/24 07:06:16;;;;;;;4.95;2.85;;;15.70;99.90;;;;;;4972830;28;20029;-88
2021/08/24 07:08:43;;;;;;;6.20;3.90;;;15.80;99.90;;;;;;4972999;28;20034;-88
2021/08/24 07:11:10;;;;;;;6.07;2.40;;;15.90;99.90;;;;;;4972660;28;20037;-88
2021/08/24 07:13:36;;;;;;;4.07;2.47;;;16.00;99.90;;;;;;4988949;28;20046;-88
2021/08/24 07:16:06;;;;;;;5.82;2.88;;;16.00;99.90;;;;;;4973022;28;20065;-89
2021/08/24 07:18:31;;;;;;;6.03;2.38;;;16.00;99.90;;;;;;4953978;28;20031;-88
2021/08/24 07:20:57;;;;;;;7.30;3.60;;;16.10;99.90;;;;;;4969637;28;20037;-88
2021/08/24 07:23:22;;;;;;;5.68;4.15;;;16.30;99.90;;;;;;4969552;28;20058;-89
2021/08/24 07:25:48;;;;;;;5.22;2.90;;;16.30;99.90;;;;;;4971559;28;20121;-88
2021/08/24 07:28:14;;;;;;;9.18;5.25;;;16.40;99.90;;;;;;4972614;28;20123;-88
2021/08/24 07:30:44;;;;;;;7.55;3.97;;;16.40;99.90;;;;;;4972649;28;20478;-88
2021/08/24 07:33:10;;;;;;;;;;;16.50;99.90;;;;;;4972970;28;20073;-88
2021/08/24 07:35:36;;;;;;;6.72;2.83;;;16.70;99.90;;;;;;4988609;28;19928;-89
2021/08/24 07:38:02;;;;;;;6.60;2.63;;;16.80;99.90;;;;;;4972954;28;20037;-87
2021/08/24 07:40:30;;;;;;;5.75;3.53;;;17.10;99.90;;;;;;4973375;28;20065;-87
2021/08/24 07:42:56;;;;;;;6.47;2.92;;;17.20;99.90;;;;;;4973074;28;20050;-88
2021/08/24 07:45:22;;;;;;;3.97;1.58;;;17.40;99.90;;;;;;4972492;28;20049;-88
2021/08/24 07:47:48;;;;;;;4.22;2.17;;;17.60;99.90;;;;;;4972495;28;20399;-87
2021/08/24 07:50:14;;;;;;;7.70;3.47;;;17.60;99.90;;;;;;4972247;28;20121;-87
2021/08/24 07:52:40;;;;;;;5.97;2.88;;;17.60;99.90;;;;;;4972368;28;20036;-88
2021/08/24 07:55:07;;;;;;;4.35;3.03;;;17.70;99.90;;;;;;4972493;28;20042;-89
2021/08/24 07:57:33;;;;;;;2.83;1.50;;;17.80;99.90;;;;;;4988325;28;20104;-87
2021/08/24 07:59:59;;;;;;;3.47;1.33;;;17.80;99.90;;;;;;4988448;28;20086;-86
2021/08/24 08:02:25;;;;;;;4.53;1.90;;;18.20;99.90;;;;;;4972336;28;20062;-87
2021/08/24 08:04:50;;;;;;;3.80;1.73;;;18.10;99.90;;;;;;4988641;28;20030;-88
2021/08/24 08:07:16;;;;;;;3.30;1.20;;;18.10;99.90;;;;;;5005803;28;20030;-91
2021/08/24 08:09:43;;;;;;;4.03;1.67;;;18.30;99.90;;;;;;4972339;28;20038;-90
2021/08/24 08:12:10;;;;;;;3.50;1.38;;;18.50;99.90;;;;;;4972112;28;20057;-91
2021/08/24 08:14:37;;;;;;;3.05;1.17;;;18.60;99.90;;;;;;4972190;28;20043;-89
2021/08/24 08:17:04;;;;;;;3.45;1.73;;;18.90;99.90;;;;;;4964953;28;20046;-90
2021/08/24 08:19:30;;;;;;;4.78;1.17;;;18.60;99.90;;;;;;4953041;28;20050;-89
2021/08/24 08:21:55;;;;;;;2.83;1.52;;;18.70;99.90;;;;;;4969054;28;20039;-90
2021/08/24 08:24:21;;;;;;;2.47;1.08;;;18.70;99.90;;;;;;4968943;28;20062;-89
2021/08/24 08:26:47;;;;;;;4.70;1.05;;;19.30;99.90;;;;;;4968999;28;20031;-90
2021/08/24 08:29:13;;;;;;;4.10;1.60;;;19.40;99.90;;;;;;4952985;28;20034;-90
2021/08/24 08:31:41;;;;;;;3.15;1.65;;;19.50;99.90;;;;;;4952647;28;20073;-87
2021/08/24 08:34:07;;;;;;;5.50;2.00;;;19.10;99.90;;;;;;4952713;28;20039;-90
2021/08/24 08:36:33;;;;;;;4.90;2.25;;;19.10;99.90;;;;;;4952862;28;20070;-90
2021/08/24 08:38:59;;;;;;;2.55;1.40;;;19.20;99.90;;;;;;4952957;28;20106;-87
2021/08/24 08:41:34;;;;;;;3.78;1.67;;;19.70;99.90;;;;;;4955249;28;20061;-88
2021/08/24 08:44:11;;;;;;;2.97;1.55;;;19.60;99.90;;;;;;4972464;28;20040;-89
2021/08/24 08:47:03;;;;;;;3.22;1.48;;;19.40;99.90;;;;;;4956480;28;20033;-88
2021/08/24 08:50:01;;;;;;;3.28;1.23;;;19.60;99.90;;;;;;4972293;28;20061;-88
2021/08/24 08:52:53;;;;;;;3.65;1.25;;;19.90;99.90;;;;;;4989670;28;20022;-88
2021/08/24 08:55:24;;;;;;;3.50;1.90;;;19.70;99.90;;;;;;4948419;28;20380;-88
2021/08/24 08:58:21;;;;;;;2.92;1.42;;;19.60;99.90;;;;;;4956214;28;20038;-87
2021/08/24 09:00:54;;;;;;;3.15;1.50;;;20.10;99.90;;;;;;4989472;28;20030;-88
2021/08/24 09:03:38;;;;;;;7.45;2.45;;;20.20;99.90;;;;;;4956078;28;20042;-88
2021/08/24 09:06:04;;;;;;;5.03;1.83;;;20.00;99.90;;;;;;4972284;28;20039;-88
2021/08/24 09:08:31;;;;;;;5.00;1.35;;;20.00;99.90;;;;;;4955983;28;20037;-87
2021/08/24 09:10:58;;;;;;;3.55;1.58;;;20.10;99.90;;;;;;4955844;28;20082;-88
2021/08/24 09:13:37;;;;;;;4.38;1.40;;;20.30;99.90;;;;;;4955806;28;20083;-88
2021/08/24 09:16:32;;;;;;;5.07;1.40;;;20.70;99.90;;;;;;4956101;28;20031;-87
2021/08/24 09:19:23;;;;;;;2.88;1.55;;;20.80;99.90;;;;;;4952496;29;20067;-87
2021/08/24 09:21:50;;;;;;;2.75;1.13;;;20.60;99.90;;;;;;4949758;29;20054;-88
2021/08/24 09:24:23;;;;;;;3.10;0.73;;;20.70;99.90;;;;;;4937442;29;20125;-88
2021/08/24 09:27:09;;;;;;;1.95;0.65;;;20.80;99.90;;;;;;4962559;28;20041;-87
2021/08/24 09:29:40;;;;;;;3.55;1.30;;;20.70;99.90;;;;;;4955716;28;20031;-87
2021/08/24 09:32:08;;;;;;;2.03;1.10;;;20.60;99.90;;;;;;4955384;28;20085;-87
2021/08/24 09:34:37;;;;;;;5.25;1.27;;;20.90;99.90;;;;;;4955422;28;20050;-87
2021/08/24 09:37:04;;;;;;;2.30;1.10;;;21.00;99.90;;;;;;4955630;28;20035;-87
2021/08/24 09:39:48;;;;;;;2.95;1.10;;;21.00;99.90;;;;;;4988622;28;20061;-88
2021/08/24 09:42:15;;;;;;;3.63;1.23;;;20.70;99.90;;;;;;4971664;28;20053;-87
2021/08/24 09:44:41;;;;;;;2.70;1.08;;;20.50;99.90;;;;;;4955114;28;20046;-86
2021/08/24 09:47:20;;;;;;;2.35;0.95;;;20.90;99.90;;;;;;4955406;28;20106;-88
2021/08/24 09:49:47;;;;;;;2.25;0.90;;;21.00;99.90;;;;;;4955249;28;20046;-88
2021/08/24 09:52:23;;;;;;;2.85;1.08;;;21.00;99.90;;;;;;4954913;28;20055;-89
2021/08/24 09:54:49;;;;;;;3.10;0.90;;;20.90;99.90;;;;;;4955064;28;20122;-87
2021/08/24 09:57:20;;;;;;;2.60;1.02;;;21.10;99.90;;;;;;4971237;28;20027;-87
2021/08/24 09:59:54;;;;;;;3.50;0.90;;;21.00;99.90;;;;;;4955049;28;20035;-87
2021/08/24 10:02:35;;;;;;;3.00;0.90;;;21.50;99.90;;;;;;4955231;28;20038;-88
2021/08/24 10:05:01;;;;;;;2.20;1.00;;;21.60;99.90;;;;;;4955081;28;20031;-88
2021/08/24 10:07:37;;;;;;;2.38;0.75;;;21.60;99.90;;;;;;4970957;28;20045;-88
2021/08/24 10:10:06;;;;;;;1.58;0.70;;;21.50;99.90;;;;;;4970894;28;20111;-88
2021/08/24 10:12:35;;;;;;;2.55;0.70;;;21.90;99.90;;;;;;4954863;28;20439;-87
2021/08/24 10:15:19;;;;;;;2.55;1.05;;;21.70;99.90;;;;;;4954808;28;20279;-88
2021/08/24 10:17:45;;;;;;;3.05;1.13;;;21.70;99.90;;;;;;4970827;28;20124;-88
2021/08/24 10:20:30;;;;;;;1.88;0.60;;;22.10;99.90;;;;;;4970546;28;20030;-88
2021/08/24 10:22:57;;;;;;;2.17;0.68;;;22.20;99.90;;;;;;4954557;28;20035;-89
2021/08/24 10:25:31;;;;;;;1.70;0.60;;;22.00;99.90;;;;;;4970824;28;20054;-88
2021/08/24 10:28:09;;;;;;;1.73;0.80;;;21.80;99.90;;;;;;4970582;28;20030;-88
2021/08/24 10:30:44;;;;;;;3.10;0.60;;;21.60;99.90;;;;;;4954231;28;20039;-87
2021/08/24 10:33:35;;;;;;;2.75;0.60;;;21.60;99.90;;;;;;4954563;28;20514;-89
2021/08/24 10:36:12;;;;;;;3.20;0.70;;;22.00;99.90;;;;;;4970545;28;20059;-87
2021/08/24 10:38:43;;;;;;;1.50;0.60;;;21.90;99.90;;;;;;4970644;28;20039;-88
2021/08/24 10:41:40;;;;;;;3.45;0.60;;;21.80;99.90;;;;;;4970197;28;20050;-88
2021/08/24 10:44:24;;;;;;;2.20;0.70;;;21.90;99.90;;;;;;4970272;28;20034;-90
2021/08/24 10:47:00;;;;;;;2.42;0.50;;;22.00;99.90;;;;;;4954543;28;20074;-88
2021/08/24 10:49:27;;;;;;;1.63;0.50;;;21.90;99.90;;;;;;4987569;28;20055;-91
2021/08/24 10:52:26;;;;;;;2.80;0.50;;;22.40;99.90;;;;;;4954255;28;20058;-92
2021/08/24 10:55:31;;;;;;;2.13;0.50;;;22.40;99.90;;;;;;4970191;28;20121;-91
2021/08/24 10:58:16;;;;;;;2.97;0.70;;;22.40;99.90;;;;;;4963373;28;20118;-90
2021/08/24 11:01:04;;;;;;;2.08;0.60;;;22.50;99.90;;;;;;4953927;28;20107;-90
2021/08/24 11:04:06;;;;;;;1.40;0.40;;;22.60;99.90;;;;;;4953486;28;20035;-93
2021/08/24 11:06:53;;;;;;;1.10;0.40;;;22.10;99.90;;;;;;4954063;28;20074;-89
2021/08/24 11:09:40;;;;;;;1.40;0.40;;;22.60;99.90;;;;;;4969690;28;20569;-88
2021/08/24 11:12:33;;;;;;;1.48;0.50;;;22.90;99.90;;;;;;4969892;28;20035;-88
2021/08/24 11:15:26;;;;;;;1.23;0.40;;;22.70;99.90;;;;;;4953663;28;20046;-91
2021/08/24 11:18:05;;;;;;;1.40;0.40;;;22.80;99.90;;;;;;4969773;28;20041;-92
2021/08/24 11:20:45;;;;;;;1.30;0.40;;;22.70;99.90;;;;;;4969969;28;20035;-90
2021/08/24 11:23:29;;;;;;;3.05;0.50;;;22.70;99.90;;;;;;4970018;28;20086;-89
2021/08/24 11:26:14;;;;;;;2.78;0.40;;;23.10;99.90;;;;;;4972662;28;20080;-89
2021/08/24 11:29:00;;;;;;;1.33;0.32;;;23.50;99.90;;;;;;4989147;28;20113;-91
2021/08/24 11:31:29;;;;;;;1.70;0.35;;;22.90;99.90;;;;;;4989720;28;20038;-90
2021/08/24 11:34:09;;;;;;;1.88;0.40;;;22.60;99.90;;;;;;4973115;28;20186;-93
2021/08/24 11:36:50;;;;;;;1.58;0.40;;;22.70;99.90;;;;;;4972897;28;20459;-92
2021/08/24 11:39:24;;;;;;;1.17;0.40;;;22.60;99.90;;;;;;4988934;28;20390;-88
2021/08/24 11:41:56;;;;;;;1.08;0.30;;;22.70;99.90;;;;;;4972631;28;20045;-94
2021/08/24 11:44:33;;;;;;;1.20;0.40;;;23.10;99.90;;;;;;4972711;28;20062;-88
2021/08/24 11:47:11;;;;;;;1.20;0.38;;;23.40;99.90;;;;;;4989067;28;20035;-95
2021/08/24 11:49:49;;;;;;;1.30;0.40;;;23.30;99.90;;;;;;4974000;28;20572;-90
2021/08/24 11:52:44;;;;;;;1.08;0.30;;;23.00;99.90;;;;;;4973406;28;20060;-93
2021/08/24 11:55:24;;;;;;;0.90;0.30;;;23.50;99.90;;;;;;4988620;28;20066;-91
2021/08/24 11:58:16;;;;;;;1.73;0.60;;;23.70;99.90;;;;;;5006601;28;20045;-93
2021/08/24 12:00:51;;;;;;;1.50;0.60;;;23.90;99.90;;;;;;4972397;28;20040;-90
2021/08/24 12:03:21;;;;;;;1.85;0.40;;;23.70;99.90;;;;;;4972810;28;20034;-90
2021/08/24 12:05:51;;;;;;;1.95;0.60;;;23.30;99.90;;;;;;4972300;28;20034;-91
2021/08/24 12:08:23;;;;;;;1.38;0.45;;;23.10;99.90;;;;;;4972473;28;20037;-94
2021/08/24 12:10:51;;;;;;;2.47;0.60;;;23.30;99.90;;;;;;4973486;28;20033;-92
2021/08/24 12:13:36;;;;;;;1.35;0.47;;;23.10;99.90;;;;;;4992211;28;20162;-92
2021/08/24 12:16:24;;;;;;;2.08;0.40;;;23.30;99.90;;;;;;4978843;28;20510;-88
2021/08/24 12:18:51;;;;;;;1.25;0.40;;;23.30;99.90;;;;;;4955043;29;20058;-86
2021/08/24 12:21:29;;;;;;;1.35;0.47;;;23.20;99.90;;;;;;4937428;29;20043;-87
2021/08/24 12:23:57;;;;;;;0.98;0.30;;;23.40;99.90;;;;;;4953627;29;20054;-88
2021/08/24 12:26:26;;;;;;;1.33;0.30;;;23.40;99.90;;;;;;4967102;28;20034;-87
2021/08/24 12:28:53;;;;;;;0.82;0.40;;;23.00;99.90;;;;;;4993420;28;20054;-92
2021/08/24 12:31:30;;;;;;;0.60;0.20;;;23.00;99.90;;;;;;4992947;28;20094;-89
2021/08/24 12:33:56;;;;;;;1.90;0.50;;;23.40;99.90;;;;;;4976188;28;20050;-89
2021/08/24 12:36:22;;;;;;;1.60;0.40;;;23.50;99.90;;;;;;4976097;28;20053;-95
2021/08/24 12:38:53;;;;;;;1.65;0.40;;;23.30;99.90;;;;;;4976494;28;20034;-95
2021/08/24 12:41:31;;;;;;;1.42;0.40;;;23.50;99.90;;;;;;4975707;28;20026;-94
2021/08/24 12:44:25;;;;;;;1.33;0.40;;;23.50;99.90;;;;;;4976205;28;20036;-90
2021/08/24 12:47:12;;;;;;;1.48;0.52;;;23.60;99.90;;;;;;4975755;28;20057;-91
2021/08/24 12:49:37;;;;;;;1.00;0.40;;;23.50;99.90;;;;;;4975514;28;20046;-90
2021/08/24 12:52:32;;;;;;;1.20;0.30;;;23.50;99.90;;;;;;4977888;28;20041;-87
2021/08/24 12:55:30;;;;;;;1.67;0.40;;;23.50;99.90;;;;;;4975706;28;20046;-95
2021/08/24 12:58:19;;;;;;;0.90;0.32;;;23.40;99.90;;;;;;4991778;28;20139;-90
2021/08/24 13:01:23;;;;;;;2.88;0.30;;;23.50;99.90;;;;;;4991537;28;20038;-90
2021/08/24 13:04:14;;;;;;;1.63;0.50;;;23.40;99.90;;;;;;4991658;28;20098;-91
2021/08/24 13:06:46;;;;;;;1.58;0.30;;;23.30;99.90;;;;;;4975580;28;20042;-92
2021/08/24 13:09:36;;;;;;;1.63;0.38;;;23.10;99.90;;;;;;4975348;28;20022;-92
2021/08/24 13:12:17;;;;;;;1.10;0.30;;;23.20;99.90;;;;;;4975228;28;20030;-90
2021/08/24 13:14:52;;;;;;;2.30;0.40;;;23.30;99.90;;;;;;4975221;28;20042;-94